createdAt,value
2024-03-24T00:00:13.134Z,85.0369
2024-03-24T00:01:16.161Z,85.7081
2024-03-24T00:02:19.195Z,84.6891
2024-03-24T00:03:22.215Z,85.1805
2024-03-24T00:04:25.288Z,83.7948
2024-03-24T00:05:28.323Z,84.7530
2024-03-24T00:06:31.367Z,84.7713
2024-03-24T00:07:34.396Z,83.6561
2024-03-24T00:08:37.442Z,84.1114
2024-03-24T00:09:40.495Z,84.8103
2024-03-24T00:10:43.533Z,83.6066
2024-03-24T00:11:46.574Z,83.5039
2024-03-24T00:12:49.599Z,83.8000
2024-03-24T00:13:52.652Z,84.3685
2024-03-24T00:14:55.686Z,83.9922
2024-03-24T00:15:59.066Z,85.0953
2024-03-24T00:17:02.121Z,83.5587
2024-03-24T00:18:05.126Z,83.4412
2024-03-24T00:19:08.219Z,84.3012
2024-03-24T00:20:11.252Z,83.4062
2024-03-24T00:21:14.261Z,84.1818
2024-03-24T00:22:17.550Z,82.9508
2024-03-24T00:23:20.590Z,83.4164
2024-03-24T00:24:23.728Z,81.5954
2024-03-24T00:25:26.734Z,82.0800
2024-03-24T00:26:29.769Z,81.6669
2024-03-24T00:27:32.745Z,81.8610
2024-03-24T00:28:35.921Z,83.5944
2024-03-24T00:29:38.939Z,83.1620
2024-03-24T00:30:41.900Z,84.2376
2024-03-24T00:31:44.983Z,83.0556
2024-03-24T00:32:48.018Z,82.9883
2024-03-24T00:33:51.040Z,82.1674
2024-03-24T00:34:54.410Z,81.8805
2024-03-24T00:35:57.608Z,81.8841
2024-03-24T00:37:00.797Z,81.9567
2024-03-24T00:38:03.825Z,83.3961
2024-03-24T00:39:06.883Z,83.3771
2024-03-24T00:40:09.918Z,82.9572
2024-03-24T00:41:12.909Z,83.5572
2024-03-24T00:42:16.004Z,82.7749
2024-03-24T00:43:19.058Z,83.2798
2024-03-24T00:44:22.099Z,82.9179
2024-03-24T00:45:25.146Z,84.1332
2024-03-24T00:46:28.180Z,83.7742
2024-03-24T00:47:31.244Z,84.0682
2024-03-24T00:48:34.247Z,84.8848
2024-03-24T00:49:37.244Z,83.3708
2024-03-24T00:50:40.347Z,83.6578
2024-03-24T00:51:43.362Z,83.6275
2024-03-24T00:52:46.669Z,83.8387
2024-03-24T00:53:49.766Z,83.5290
2024-03-24T00:54:52.787Z,84.0328
2024-03-24T00:55:55.844Z,83.4451
2024-03-24T00:56:58.901Z,83.5580
2024-03-24T00:58:02.275Z,84.3449
2024-03-24T00:59:05.286Z,85.0765
2024-03-24T01:00:08.324Z,85.5471
2024-03-24T01:01:11.391Z,85.4503
2024-03-24T01:02:14.355Z,85.2946
2024-03-24T01:03:17.451Z,84.9735
2024-03-24T01:04:20.507Z,85.2241
2024-03-24T01:05:23.556Z,86.2838
2024-03-24T01:06:26.601Z,85.4468
2024-03-24T01:07:29.676Z,85.7872
2024-03-24T01:08:32.724Z,85.5570
2024-03-24T01:09:35.712Z,85.4850
2024-03-24T01:10:38.752Z,85.8875
2024-03-24T01:11:41.900Z,85.2887
2024-03-24T01:12:44.883Z,86.0274
2024-03-24T01:13:47.900Z,86.5778
2024-03-24T01:14:50.904Z,86.3312
2024-03-24T01:15:53.930Z,86.9102
2024-03-24T01:16:56.893Z,87.3003
2024-03-24T01:18:00.015Z,86.8504
2024-03-24T01:19:03.094Z,86.4572
2024-03-24T01:20:06.073Z,86.8543
2024-03-24T01:21:09.150Z,87.2646
2024-03-24T01:22:12.202Z,87.4375
2024-03-24T01:23:15.198Z,87.5798
2024-03-24T01:24:18.250Z,87.7850
2024-03-24T01:25:21.292Z,87.4249
2024-03-24T01:26:24.392Z,87.1369
2024-03-24T01:27:27.422Z,88.0459
2024-03-24T01:28:30.542Z,87.6487
2024-03-24T01:29:33.532Z,87.6728
2024-03-24T01:30:36.581Z,87.9024
2024-03-24T01:31:39.652Z,87.7074
2024-03-24T01:32:42.652Z,87.5022
2024-03-24T01:33:45.673Z,87.1872
2024-03-24T01:34:48.967Z,87.7296
2024-03-24T01:35:52.045Z,87.8938
2024-03-24T01:36:55.061Z,88.9593
2024-03-24T01:37:58.062Z,89.2287
2024-03-24T01:39:01.132Z,88.9856
2024-03-24T01:40:04.167Z,89.3521
2024-03-24T01:41:07.189Z,89.2847
2024-03-24T01:42:10.196Z,88.4839
2024-03-24T01:43:13.298Z,89.3823
2024-03-24T01:44:16.342Z,89.8013
2024-03-24T01:45:19.353Z,88.3877
2024-03-24T01:46:22.462Z,89.3413
2024-03-24T01:47:25.486Z,89.3254
2024-03-24T01:48:28.493Z,90.1183
2024-03-24T01:49:31.675Z,90.1468
2024-03-24T01:50:34.703Z,90.6724
2024-03-24T01:51:37.684Z,91.5972
2024-03-24T01:52:40.715Z,91.1511
2024-03-24T01:53:43.684Z,90.7684
2024-03-24T01:54:46.746Z,90.7967
2024-03-24T01:55:49.763Z,91.3485
2024-03-24T01:56:52.821Z,91.4506
2024-03-24T01:57:55.867Z,91.7696
2024-03-24T01:58:58.915Z,91.9964
2024-03-24T02:00:01.915Z,91.4205
2024-03-24T02:01:04.936Z,91.4523
2024-03-24T02:02:07.946Z,91.4682
2024-03-24T02:03:11.023Z,91.7890
2024-03-24T02:04:14.132Z,91.7519
2024-03-24T02:05:17.088Z,91.9550
2024-03-24T02:06:20.131Z,92.5112
2024-03-24T02:07:23.166Z,92.9130
2024-03-24T02:08:26.190Z,92.4083
2024-03-24T02:09:29.234Z,92.4345
2024-03-24T02:10:32.275Z,93.0284
2024-03-24T02:11:35.318Z,93.1667
2024-03-24T02:12:38.312Z,93.0988
2024-03-24T02:13:41.426Z,93.4635
2024-03-24T02:14:44.441Z,92.9271
2024-03-24T02:15:47.467Z,92.4632
2024-03-24T02:16:50.535Z,92.7268
2024-03-24T02:17:57.815Z,93.4210
2024-03-24T02:18:55.646Z,93.0954
2024-03-24T02:19:58.644Z,93.0588
2024-03-24T02:21:01.726Z,93.4519
2024-03-24T02:22:04.755Z,93.3168
2024-03-24T02:23:07.914Z,93.6625
2024-03-24T02:24:10.907Z,93.8163
2024-03-24T02:25:13.920Z,93.7182
2024-03-24T02:26:17.267Z,94.0682
2024-03-24T02:27:20.344Z,94.1255
2024-03-24T02:28:23.384Z,94.2840
2024-03-24T02:29:26.674Z,94.2852
2024-03-24T02:30:26.588Z,94.2923
2024-03-24T02:31:29.577Z,94.3259
2024-03-24T02:32:32.669Z,94.6571
2024-03-24T02:33:35.703Z,95.1788
2024-03-24T02:34:38.723Z,95.1043
2024-03-24T02:35:41.726Z,94.9778
2024-03-24T02:36:44.753Z,95.0479
2024-03-24T02:37:47.799Z,94.9827
2024-03-24T02:38:50.844Z,95.4704
2024-03-24T02:39:53.952Z,95.6066
2024-03-24T02:40:56.985Z,95.8283
2024-03-24T02:42:00.072Z,95.8110
2024-03-24T02:43:03.109Z,95.6525
2024-03-24T02:44:06.149Z,95.5917
2024-03-24T02:45:09.244Z,95.5723
2024-03-24T02:46:12.273Z,95.4482
2024-03-24T02:47:15.488Z,95.5834
2024-03-24T02:48:18.532Z,96.1559
2024-03-24T02:49:21.554Z,95.9575
2024-03-24T02:50:24.586Z,95.9444
2024-03-24T02:51:27.906Z,95.8273
2024-03-24T02:52:30.993Z,96.1577
2024-03-24T02:53:34.068Z,95.9153
2024-03-24T02:54:37.136Z,95.7940
2024-03-24T02:55:40.136Z,95.6983
2024-03-24T02:56:43.154Z,95.3207
2024-03-24T02:57:46.353Z,95.7103
2024-03-24T02:58:49.351Z,95.6974
2024-03-24T02:59:52.617Z,95.6562
2024-03-24T03:00:55.624Z,95.9028
2024-03-24T03:01:58.677Z,96.1265
2024-03-24T03:03:01.712Z,96.1776
2024-03-24T03:04:04.708Z,95.6578
2024-03-24T03:05:07.811Z,95.7905
2024-03-24T03:06:11.170Z,95.8665
2024-03-24T03:07:14.174Z,95.3669
2024-03-24T03:08:17.195Z,95.2356
2024-03-24T03:09:20.285Z,95.6032
2024-03-24T03:10:23.324Z,95.8428
2024-03-24T03:11:26.341Z,95.6594
2024-03-24T03:12:29.421Z,96.2262
2024-03-24T03:13:32.409Z,96.2320
2024-03-24T03:14:35.478Z,95.5889
2024-03-24T03:15:38.687Z,94.9689
2024-03-24T03:16:41.692Z,94.5225
2024-03-24T03:17:44.673Z,94.1621
2024-03-24T03:18:47.963Z,94.6376
2024-03-24T03:19:50.990Z,94.6449
2024-03-24T03:20:54.043Z,95.0406
2024-03-24T03:21:57.042Z,95.0694
2024-03-24T03:23:00.144Z,95.2101
2024-03-24T03:24:03.159Z,95.5454
2024-03-24T03:25:06.205Z,94.9978
2024-03-24T03:26:09.240Z,94.4590
2024-03-24T03:27:12.229Z,94.5587
2024-03-24T03:28:15.333Z,95.0511
2024-03-24T03:29:18.364Z,95.1121
2024-03-24T03:30:21.443Z,95.2572
2024-03-24T03:31:24.443Z,95.2817
2024-03-24T03:32:27.498Z,95.3405
2024-03-24T03:33:30.555Z,95.7036
2024-03-24T03:34:33.565Z,95.6533
2024-03-24T03:35:36.604Z,95.8984
2024-03-24T03:36:39.640Z,96.1083
2024-03-24T03:37:42.735Z,96.3596
2024-03-24T03:38:45.818Z,96.9042
2024-03-24T03:39:48.882Z,96.8850
2024-03-24T03:40:51.901Z,97.0593
2024-03-24T03:41:55.166Z,97.3504
2024-03-24T03:42:58.189Z,97.0123
2024-03-24T03:44:01.255Z,96.9395
2024-03-24T03:45:04.281Z,97.0512
2024-03-24T03:46:07.320Z,97.1994
2024-03-24T03:47:10.306Z,97.1709
2024-03-24T03:48:13.398Z,97.3866
2024-03-24T03:49:16.523Z,97.5190
2024-03-24T03:50:19.574Z,97.4072
2024-03-24T03:51:22.618Z,97.3101
2024-03-24T03:52:25.668Z,97.4531
2024-03-24T03:53:28.686Z,97.5251
2024-03-24T03:54:31.731Z,97.3927
2024-03-24T03:55:34.750Z,97.5148
2024-03-24T03:56:37.861Z,97.4411
2024-03-24T03:57:40.867Z,97.3383
2024-03-24T03:58:43.891Z,97.0271
2024-03-24T03:59:46.987Z,97.2895
2024-03-24T04:00:49.949Z,96.7261
2024-03-24T04:01:52.931Z,96.4046
2024-03-24T04:02:55.972Z,96.5300
2024-03-24T04:03:58.942Z,96.5197
2024-03-24T04:05:02.044Z,96.3949
2024-03-24T04:06:05.067Z,96.4330
2024-03-24T04:07:08.119Z,96.5420
2024-03-24T04:08:11.186Z,96.6700
2024-03-24T04:09:14.213Z,96.6677
2024-03-24T04:10:17.395Z,96.8677
2024-03-24T04:11:20.420Z,96.8700
2024-03-24T04:12:23.472Z,97.0524
2024-03-24T04:13:26.775Z,96.8661
2024-03-24T04:14:29.795Z,96.7058
2024-03-24T04:15:32.781Z,96.5708
2024-03-24T04:16:35.970Z,96.2025
2024-03-24T04:17:38.953Z,96.1858
2024-03-24T04:18:42.023Z,96.1521
2024-03-24T04:19:45.028Z,96.1193
2024-03-24T04:20:48.294Z,95.9609
2024-03-24T04:21:51.343Z,95.5736
2024-03-24T04:22:54.373Z,95.5000
2024-03-24T04:23:57.423Z,95.4840
2024-03-24T04:25:00.528Z,95.5677
2024-03-24T04:26:03.525Z,95.5047
2024-03-24T04:27:06.544Z,95.3749
2024-03-24T04:28:09.557Z,95.4503
2024-03-24T04:29:12.562Z,95.8782
2024-03-24T04:30:15.682Z,96.0135
2024-03-24T04:31:18.689Z,95.8577
2024-03-24T04:32:21.745Z,95.9514
2024-03-24T04:33:24.755Z,95.7854
2024-03-24T04:34:27.766Z,96.0680
2024-03-24T04:35:30.857Z,95.8702
2024-03-24T04:36:34.043Z,96.2055
2024-03-24T04:37:37.046Z,96.3334
2024-03-24T04:38:40.059Z,96.5120
2024-03-24T04:39:43.326Z,96.7643
2024-03-24T04:40:46.396Z,96.9133
2024-03-24T04:41:49.475Z,96.9398
2024-03-24T04:42:52.643Z,96.7241
2024-03-24T04:43:55.782Z,96.5647
2024-03-24T04:44:58.843Z,96.5154
2024-03-24T04:46:01.894Z,96.6332
2024-03-24T04:47:04.919Z,96.9552
2024-03-24T04:48:07.955Z,97.0109
2024-03-24T04:49:11.016Z,97.1937
2024-03-24T04:50:14.042Z,97.2911
2024-03-24T04:51:17.143Z,97.3776
2024-03-24T04:52:20.184Z,97.4798
2024-03-24T04:53:23.252Z,97.5667
2024-03-24T04:54:26.515Z,97.6165
2024-03-24T04:55:29.586Z,97.4077
2024-03-24T04:56:32.612Z,97.2290
2024-03-24T04:57:35.632Z,97.4888
2024-03-24T04:58:38.691Z,97.6870
2024-03-24T04:59:41.784Z,97.6098
2024-03-24T05:00:44.868Z,97.4995
2024-03-24T05:01:47.884Z,97.2133
2024-03-24T05:02:50.943Z,96.9548
2024-03-24T05:03:53.961Z,96.4643
2024-03-24T05:04:56.956Z,96.6743
2024-03-24T05:06:00.049Z,97.0273
2024-03-24T05:07:03.088Z,97.1755
2024-03-24T05:08:06.114Z,97.3830
2024-03-24T05:09:09.123Z,97.8619
2024-03-24T05:10:12.219Z,97.9433
2024-03-24T05:11:15.203Z,98.0482
2024-03-24T05:12:18.351Z,98.3883
2024-03-24T05:13:21.343Z,98.4711
2024-03-24T05:14:24.387Z,98.4776
2024-03-24T05:15:27.455Z,98.6731
2024-03-24T05:16:30.489Z,98.8030
2024-03-24T05:17:33.631Z,98.8075
2024-03-24T05:18:36.800Z,98.5697
2024-03-24T05:19:39.834Z,98.6487
2024-03-24T05:20:42.869Z,98.5650
2024-03-24T05:21:45.935Z,98.5912
2024-03-24T05:22:49.036Z,98.5363
2024-03-24T05:23:52.104Z,98.5801
2024-03-24T05:24:55.362Z,98.8312
2024-03-24T05:25:58.365Z,98.9838
2024-03-24T05:27:01.465Z,99.0286
2024-03-24T05:28:04.543Z,98.9414
2024-03-24T05:29:07.572Z,98.6882
2024-03-24T05:30:10.643Z,98.5378
2024-03-24T05:31:13.919Z,98.6171
2024-03-24T05:32:16.952Z,98.4768
2024-03-24T05:33:19.992Z,98.5724
2024-03-24T05:34:23.032Z,98.5211
2024-03-24T05:35:26.068Z,98.5441
2024-03-24T05:36:28.561Z,98.4298
2024-03-24T05:37:30.997Z,98.4283
2024-03-24T05:38:33.593Z,98.2473
2024-03-24T05:39:36.049Z,98.2951
2024-03-24T05:40:38.533Z,98.4138
2024-03-24T05:41:41.109Z,98.3042
2024-03-24T05:42:43.624Z,98.1542
2024-03-24T05:43:46.237Z,97.8502
2024-03-24T05:44:48.727Z,97.9504
2024-03-24T05:45:51.191Z,97.8008
2024-03-24T05:46:53.771Z,98.0639
2024-03-24T05:47:56.225Z,97.9877
2024-03-24T05:48:58.701Z,98.3100
2024-03-24T05:50:01.198Z,98.3804
2024-03-24T05:51:03.699Z,98.4979
2024-03-24T05:52:06.161Z,98.4309
2024-03-24T05:53:08.808Z,98.1823
2024-03-24T05:54:11.315Z,97.5725
2024-03-24T05:55:13.756Z,97.4615
2024-03-24T05:56:16.307Z,97.7779
2024-03-24T05:57:18.792Z,97.3929
2024-03-24T05:58:21.255Z,97.2369
2024-03-24T05:59:23.896Z,97.2082
2024-03-24T06:00:26.505Z,96.9323
2024-03-24T06:01:28.922Z,96.9630
2024-03-24T06:02:31.360Z,97.0633
2024-03-24T06:03:34.087Z,96.5552
2024-03-24T06:04:36.482Z,96.4654
2024-03-24T06:05:38.900Z,96.3010
2024-03-24T06:06:41.353Z,96.2936
2024-03-24T06:07:43.811Z,96.0058
2024-03-24T06:08:46.375Z,95.9950
2024-03-24T06:09:48.791Z,95.4270
2024-03-24T06:10:51.514Z,95.2400
2024-03-24T06:11:54.033Z,95.2048
2024-03-24T06:12:56.440Z,95.6024
2024-03-24T06:13:58.960Z,95.7420
2024-03-24T06:15:01.382Z,95.1709
2024-03-24T06:16:03.832Z,94.2980
2024-03-24T06:17:06.257Z,94.3475
2024-03-24T06:18:08.945Z,94.2713
2024-03-24T06:19:14.213Z,94.4892
2024-03-24T06:20:13.735Z,94.9536
2024-03-24T06:21:16.157Z,94.4864
2024-03-24T06:22:18.574Z,94.7879
2024-03-24T06:23:21.022Z,94.5133
2024-03-24T06:24:23.461Z,93.7879
2024-03-24T06:25:25.911Z,93.7187
2024-03-24T06:26:28.474Z,93.1688
2024-03-24T06:27:30.925Z,92.3490
2024-03-24T06:28:33.603Z,91.9906
2024-03-24T06:29:36.047Z,92.2872
2024-03-24T06:30:38.667Z,91.5492
2024-03-24T06:31:43.842Z,92.0152
2024-03-24T06:32:44.808Z,91.4129
2024-03-24T06:33:47.277Z,91.5385
2024-03-24T06:34:49.713Z,91.9234
2024-03-24T06:35:52.311Z,90.9950
2024-03-24T06:36:54.718Z,90.7339
2024-03-24T06:37:57.179Z,91.4217
2024-03-24T06:38:59.604Z,91.3224
2024-03-24T06:40:02.031Z,91.8302
2024-03-24T06:41:04.479Z,91.8454
2024-03-24T06:42:07.027Z,90.9319
2024-03-24T06:43:09.521Z,91.3806
2024-03-24T06:44:11.914Z,90.8213
2024-03-24T06:45:14.382Z,91.0554
2024-03-24T06:46:16.958Z,90.6477
2024-03-24T06:47:19.398Z,90.2459
2024-03-24T06:48:21.865Z,90.2045
2024-03-24T06:49:24.303Z,90.5843
2024-03-24T06:50:26.874Z,89.4814
2024-03-24T06:51:29.312Z,89.3503
2024-03-24T06:52:32.040Z,90.1433
2024-03-24T06:53:34.800Z,90.2803
2024-03-24T06:54:37.370Z,90.2964
2024-03-24T06:55:39.794Z,90.5613
2024-03-24T06:56:42.554Z,91.1151
2024-03-24T06:57:45.284Z,90.0258
2024-03-24T06:58:47.745Z,89.8665
2024-03-24T06:59:50.182Z,90.1188
2024-03-24T07:00:52.618Z,90.4284
2024-03-24T07:01:55.200Z,90.2709
2024-03-24T07:02:57.638Z,90.3533
2024-03-24T07:04:00.299Z,90.7712
2024-03-24T07:05:02.760Z,91.1467
2024-03-24T07:06:05.429Z,91.0770
2024-03-24T07:07:07.842Z,91.3514
2024-03-24T07:08:10.279Z,91.3354
2024-03-24T07:09:12.742Z,91.1765
2024-03-24T07:10:15.183Z,90.1606
2024-03-24T07:11:17.762Z,90.8161
2024-03-24T07:12:20.189Z,91.3893
2024-03-24T07:13:22.830Z,90.5202
2024-03-24T07:14:25.272Z,90.2520
2024-03-24T07:15:27.741Z,89.8041
2024-03-24T07:16:30.199Z,89.4759
2024-03-24T07:17:32.621Z,89.1826
2024-03-24T07:18:35.041Z,88.3851
2024-03-24T07:19:37.601Z,89.0152
2024-03-24T07:20:40.040Z,87.4005
2024-03-24T07:21:42.448Z,86.8142
2024-03-24T07:22:44.940Z,87.1326
2024-03-24T07:23:47.385Z,86.3931
2024-03-24T07:24:49.930Z,86.2915
2024-03-24T07:25:52.632Z,86.6740
2024-03-24T07:26:55.133Z,85.7619
2024-03-24T07:27:58.069Z,86.4363
2024-03-24T07:29:01.124Z,86.1956
2024-03-24T07:30:04.161Z,86.2353
2024-03-24T07:31:07.180Z,86.6755
2024-03-24T07:32:10.231Z,86.7073
2024-03-24T07:33:13.410Z,86.8824
2024-03-24T07:34:16.434Z,86.6885
2024-03-24T07:35:19.486Z,87.2423
2024-03-24T07:36:22.509Z,87.1756
2024-03-24T07:37:25.520Z,87.0413
2024-03-24T07:38:28.543Z,86.8479
2024-03-24T07:39:31.576Z,85.5177
2024-03-24T07:40:34.871Z,84.1079
2024-03-24T07:41:37.914Z,84.2249
2024-03-24T07:42:43.515Z,84.4656
2024-03-24T07:43:44.061Z,83.2696
2024-03-24T07:44:47.111Z,83.7093
2024-03-24T07:45:50.127Z,84.3918
2024-03-24T07:46:53.226Z,84.6390
2024-03-24T07:47:56.258Z,83.6887
2024-03-24T07:48:59.298Z,84.6870
2024-03-24T07:50:02.335Z,84.5903
2024-03-24T07:51:05.342Z,84.0669
2024-03-24T07:52:08.361Z,84.5581
2024-03-24T07:53:11.390Z,85.6380
2024-03-24T07:54:14.526Z,85.1384
2024-03-24T07:55:17.584Z,84.1334
2024-03-24T07:56:20.557Z,83.9471
2024-03-24T07:57:23.831Z,83.3172
2024-03-24T07:58:27.053Z,83.7559
2024-03-24T07:59:30.198Z,84.4107
2024-03-24T08:00:33.253Z,84.5846
2024-03-24T08:01:36.305Z,83.8081
2024-03-24T08:02:39.387Z,83.5007
2024-03-24T08:03:42.381Z,84.3140
2024-03-24T08:04:45.471Z,84.9288
2024-03-24T08:05:48.548Z,83.5975
2024-03-24T08:06:51.630Z,82.4195
2024-03-24T08:07:56.440Z,81.8560
2024-03-24T08:08:56.422Z,80.9011
2024-03-24T08:09:59.651Z,78.7637
2024-03-24T08:11:02.703Z,77.6525
2024-03-24T08:12:05.831Z,77.8872
2024-03-24T08:13:08.841Z,78.7818
2024-03-24T08:14:11.936Z,78.1839
2024-03-24T08:15:14.953Z,77.5323
2024-03-24T08:16:17.965Z,77.6483
2024-03-24T08:17:21.267Z,77.9233
2024-03-24T08:18:24.301Z,78.0116
2024-03-24T08:19:27.341Z,80.1991
2024-03-24T08:20:30.431Z,78.4953
2024-03-24T08:21:33.522Z,77.4533
2024-03-24T08:22:36.804Z,76.3327
2024-03-24T08:23:39.909Z,77.0272
2024-03-24T08:24:42.928Z,78.1695
2024-03-24T08:25:45.896Z,77.7079
2024-03-24T08:26:48.968Z,78.6049
2024-03-24T08:27:51.981Z,78.3570
2024-03-24T08:28:55.007Z,77.7933
2024-03-24T08:29:58.052Z,74.9181
2024-03-24T08:31:01.061Z,75.1460
2024-03-24T08:32:04.074Z,74.3633
2024-03-24T08:33:07.181Z,72.8946
2024-03-24T08:34:10.220Z,72.4564
2024-03-24T08:35:13.221Z,72.8201
2024-03-24T08:36:16.629Z,71.4139
2024-03-24T08:37:19.696Z,73.2424
2024-03-24T08:38:22.869Z,74.4084
2024-03-24T08:39:25.889Z,74.9421
2024-03-24T08:40:31.120Z,76.2843
2024-03-24T08:41:31.911Z,75.4693
2024-03-24T08:42:34.904Z,74.7117
2024-03-24T08:43:37.899Z,74.6376
2024-03-24T08:44:40.958Z,74.7324
2024-03-24T08:45:43.994Z,74.6409
2024-03-24T08:46:47.043Z,74.3171
2024-03-24T08:47:50.058Z,73.8654
2024-03-24T08:48:53.087Z,73.8138
2024-03-24T08:49:56.147Z,74.0297
2024-03-24T08:50:59.126Z,74.1899
2024-03-24T08:52:02.253Z,74.3144
2024-03-24T08:53:05.258Z,75.5025
2024-03-24T08:54:08.567Z,77.0269
2024-03-24T08:55:11.704Z,75.9512
2024-03-24T08:56:14.700Z,76.7437
2024-03-24T08:57:17.736Z,77.3834
2024-03-24T08:58:20.800Z,77.8189
2024-03-24T08:59:23.996Z,77.4079
2024-03-24T09:00:27.190Z,77.3662
2024-03-24T09:01:30.283Z,77.4510
2024-03-24T09:02:33.503Z,76.7334
2024-03-24T09:03:36.600Z,76.8764
2024-03-24T09:04:39.690Z,77.0596
2024-03-24T09:05:42.756Z,76.0023
2024-03-24T09:06:45.769Z,77.2257
2024-03-24T09:07:48.817Z,74.5894
2024-03-24T09:08:51.865Z,75.1472
2024-03-24T09:09:54.893Z,75.8812
2024-03-24T09:10:57.888Z,73.0275
2024-03-24T09:12:01.046Z,73.2872
2024-03-24T09:13:04.060Z,72.2119
2024-03-24T09:14:07.076Z,72.0417
2024-03-24T09:15:10.267Z,72.2026
2024-03-24T09:16:13.239Z,70.6748
2024-03-24T09:17:16.392Z,69.0448
2024-03-24T09:18:19.495Z,68.6194
2024-03-24T09:19:22.548Z,69.7767
2024-03-24T09:20:25.620Z,67.5154
2024-03-24T09:21:28.643Z,66.5968
2024-03-24T09:22:31.657Z,66.6488
2024-03-24T09:23:34.706Z,64.6385
2024-03-24T09:24:37.752Z,63.7010
2024-03-24T09:25:40.772Z,62.2712
2024-03-24T09:26:43.822Z,61.9841
2024-03-24T09:27:46.869Z,60.1237
2024-03-24T09:28:49.889Z,59.1340
2024-03-24T09:29:52.989Z,59.6251
2024-03-24T09:30:56.033Z,60.4598
2024-03-24T09:31:59.075Z,59.2749
2024-03-24T09:33:02.092Z,60.4523
2024-03-24T09:34:05.354Z,61.2111
2024-03-24T09:35:13.272Z,60.3193
2024-03-24T09:36:10.583Z,59.5157
2024-03-24T09:37:13.575Z,61.3290
2024-03-24T09:38:16.856Z,62.6590
2024-03-24T09:39:19.962Z,62.7581
2024-03-24T09:40:23.054Z,61.0547
2024-03-24T09:41:26.096Z,65.4518
2024-03-24T09:42:29.100Z,66.8342
2024-03-24T09:43:32.160Z,65.6090
2024-03-24T09:44:35.234Z,63.6475
2024-03-24T09:45:38.260Z,63.4591
2024-03-24T09:46:41.242Z,64.4537
2024-03-24T09:47:44.301Z,64.2541
2024-03-24T09:48:47.301Z,65.2167
2024-03-24T09:49:50.319Z,65.6937
2024-03-24T09:50:53.393Z,61.8514
2024-03-24T09:51:56.452Z,63.0007
2024-03-24T09:52:59.489Z,61.3651
2024-03-24T09:54:02.553Z,62.1101
2024-03-24T09:55:05.580Z,60.4353
2024-03-24T09:56:08.608Z,60.6892
2024-03-24T09:57:11.663Z,59.9989
2024-03-24T09:58:17.214Z,61.1677
2024-03-24T09:59:17.462Z,60.6495
2024-03-24T10:00:20.724Z,60.5202
2024-03-24T10:01:23.826Z,58.1207
2024-03-24T10:02:26.845Z,57.2059
2024-03-24T10:03:29.922Z,59.2332
2024-03-24T10:04:32.922Z,57.9320
2024-03-24T10:05:35.981Z,59.7235
2024-03-24T10:06:38.996Z,59.5284
2024-03-24T10:07:42.053Z,60.4693
2024-03-24T10:08:45.104Z,60.8543
2024-03-24T10:09:48.187Z,60.5373
2024-03-24T10:10:51.163Z,61.2218
2024-03-24T10:11:54.314Z,62.7347
2024-03-24T10:12:57.334Z,62.6137
2024-03-24T10:14:00.364Z,61.7132
2024-03-24T10:15:03.389Z,62.0580
2024-03-24T10:16:06.400Z,62.4637
2024-03-24T10:17:09.433Z,62.7243
2024-03-24T10:18:09.652Z,62.9824
2024-03-24T10:19:12.697Z,63.3528
2024-03-24T10:20:15.746Z,63.0282
2024-03-24T10:21:18.741Z,64.6846
2024-03-24T10:22:22.090Z,66.0654
2024-03-24T10:23:25.100Z,68.4824
2024-03-24T10:24:28.140Z,69.1171
2024-03-24T10:25:31.198Z,69.8979
2024-03-24T10:26:34.269Z,70.7512
2024-03-24T10:27:37.297Z,71.5529
2024-03-24T10:28:40.313Z,71.6480
2024-03-24T10:29:43.429Z,72.5034
2024-03-24T10:30:46.445Z,73.3400
2024-03-24T10:31:52.731Z,72.3699
2024-03-24T10:32:52.843Z,72.5452
2024-03-24T10:33:55.848Z,71.8299
2024-03-24T10:34:58.858Z,70.7635
2024-03-24T10:36:02.032Z,67.0387
2024-03-24T10:37:05.041Z,66.7657
2024-03-24T10:38:08.189Z,66.7252
2024-03-24T10:39:11.242Z,67.8751
2024-03-24T10:40:14.371Z,68.1563
2024-03-24T10:41:17.420Z,65.7875
2024-03-24T10:42:20.459Z,63.5768
2024-03-24T10:43:23.525Z,63.9337
2024-03-24T10:44:26.502Z,62.4325
2024-03-24T10:45:29.542Z,64.2773
2024-03-24T10:46:32.579Z,64.3019
2024-03-24T10:47:35.712Z,63.8443
2024-03-24T10:48:38.730Z,64.5906
2024-03-24T10:49:41.789Z,64.5961
2024-03-24T10:50:44.814Z,61.5640
2024-03-24T10:51:47.855Z,61.3915
2024-03-24T10:52:53.250Z,60.7133
2024-03-24T10:53:53.318Z,60.9903
2024-03-24T10:54:56.348Z,58.5110
2024-03-24T10:55:59.379Z,58.1282
2024-03-24T10:57:02.394Z,58.3535
2024-03-24T10:58:05.413Z,58.8921
2024-03-24T10:59:11.307Z,61.3883
2024-03-24T11:00:08.717Z,63.9894
2024-03-24T11:01:11.999Z,64.5724
2024-03-24T11:02:15.077Z,65.9938
2024-03-24T11:03:18.131Z,67.1675
2024-03-24T11:04:21.149Z,69.7556
2024-03-24T11:05:24.160Z,71.0156
2024-03-24T11:06:27.180Z,73.0559
2024-03-24T11:07:30.246Z,76.3157
2024-03-24T11:08:33.269Z,78.1811
2024-03-24T11:09:36.289Z,80.6144
2024-03-24T11:10:39.346Z,81.6510
2024-03-24T11:11:42.478Z,83.3706
2024-03-24T11:12:45.609Z,84.6465
2024-03-24T11:13:48.778Z,86.7350
2024-03-24T11:14:51.880Z,86.1022
2024-03-24T11:15:54.904Z,84.8477
2024-03-24T11:16:57.408Z,84.2140
2024-03-24T11:17:59.971Z,82.1516
2024-03-24T11:19:02.420Z,82.5795
2024-03-24T11:20:04.886Z,81.1028
2024-03-24T11:21:07.347Z,78.6096
2024-03-24T11:22:09.772Z,77.5664
2024-03-24T11:23:12.292Z,79.2729
2024-03-24T11:24:14.747Z,79.4495
2024-03-24T11:25:17.350Z,76.8529
2024-03-24T11:26:19.898Z,76.3544
2024-03-24T11:27:22.926Z,77.2339
2024-03-24T11:28:23.083Z,76.1128
2024-03-24T11:29:26.177Z,76.4973
2024-03-24T11:30:29.177Z,72.6582
2024-03-24T11:31:32.167Z,71.4581
2024-03-24T11:32:35.178Z,73.0991
2024-03-24T11:33:38.220Z,73.6710
2024-03-24T11:34:41.248Z,75.5942
2024-03-24T11:35:44.340Z,76.8564
2024-03-24T11:36:47.375Z,77.8159
2024-03-24T11:37:50.445Z,75.7399
2024-03-24T11:38:53.418Z,70.5504
2024-03-24T11:39:56.495Z,69.8201
2024-03-24T11:40:59.539Z,70.5493
2024-03-24T11:42:02.592Z,67.5457
2024-03-24T11:43:05.619Z,66.0733
2024-03-24T11:44:08.645Z,66.0158
2024-03-24T11:45:11.727Z,63.7842
2024-03-24T11:46:14.717Z,62.6476
2024-03-24T11:47:17.778Z,62.5728
2024-03-24T11:48:20.829Z,62.8003
2024-03-24T11:49:23.849Z,61.8767
2024-03-24T11:50:27.239Z,60.4626
2024-03-24T11:51:30.262Z,62.2943
2024-03-24T11:52:33.366Z,62.0673
2024-03-24T11:53:36.395Z,60.4975
2024-03-24T11:54:39.420Z,61.1038
2024-03-24T11:55:42.419Z,62.0433
2024-03-24T11:56:45.465Z,58.5299
2024-03-24T11:57:48.529Z,58.3232
2024-03-24T11:58:51.540Z,59.4222
2024-03-24T11:59:54.576Z,58.4124
2024-03-24T12:00:57.628Z,59.3999
2024-03-24T12:02:00.662Z,61.5907
2024-03-24T12:03:03.747Z,59.7909
2024-03-24T12:04:06.736Z,61.6702
2024-03-24T12:05:09.748Z,61.9641
2024-03-24T12:06:12.798Z,61.6828
2024-03-24T12:07:15.898Z,64.1462
2024-03-24T12:08:18.908Z,62.6750
2024-03-24T12:09:21.921Z,62.9954
2024-03-24T12:10:24.987Z,61.4907
2024-03-24T12:11:28.027Z,61.0068
2024-03-24T12:12:31.067Z,59.7718
2024-03-24T12:13:34.116Z,59.1096
2024-03-24T12:14:37.146Z,58.2693
2024-03-24T12:15:40.171Z,59.7032
2024-03-24T12:16:43.247Z,60.3938
2024-03-24T12:17:46.287Z,60.4441
2024-03-24T12:18:49.306Z,58.8207
2024-03-24T12:19:52.372Z,58.1719
2024-03-24T12:20:55.504Z,53.2685
2024-03-24T12:21:58.570Z,52.4097
2024-03-24T12:23:01.606Z,54.1250
2024-03-24T12:24:04.826Z,52.7467
2024-03-24T12:25:07.824Z,54.8335
2024-03-24T12:26:10.834Z,56.6167
2024-03-24T12:27:13.940Z,55.0004
2024-03-24T12:28:16.985Z,52.1429
2024-03-24T12:29:20.020Z,53.0052
2024-03-24T12:30:23.074Z,50.5666
2024-03-24T12:31:26.426Z,52.5160
2024-03-24T12:32:29.461Z,51.2645
2024-03-24T12:33:32.499Z,53.7462
2024-03-24T12:34:35.540Z,55.1363
2024-03-24T12:35:38.588Z,55.5824
2024-03-24T12:36:41.618Z,57.0653
2024-03-24T12:37:44.698Z,57.0873
2024-03-24T12:38:47.719Z,57.5829
2024-03-24T12:39:50.736Z,56.5487
2024-03-24T12:40:55.245Z,57.6993